MZBZ/BZE METAR and TAF weather

Enter ICAO airport designator
Station Type Date Time Source
MZBZ METAR 2020/07/06 00:00 UTC NOAA

MZBZ 060000Z 09007KT 9999 FEW020 29/26 A2987 Q1011 NOSIG RMK HAZY


Station Type Date Time Source
MZBZ Decoded METAR 2020/07/06 00:00 UTC NOAA

Belize / Phillip Goldston Intl. Airport, Belize (MZBZ) 17-32N 088-18W 5M
Jul 05, 2020 - 08:00 PM EDT / 2020.07.06 0000 UTC
Wind: from the E (090 degrees) at 8 MPH (7 KT):0
Visibility: greater than 7 mile(s):0
Sky conditions: mostly clear
Temperature: 84 F (29 C)
Dew Point: 78 F (26 C)
Relative Humidity: 83%
Pressure (altimeter): 29.87 in. Hg (1011 hPa)
ob: MZBZ 060000Z 09007KT 9999 FEW020 29/26 A2987 Q1011 NOSIG RMK HAZY
cycle: 0

Station Type Date Time Source
MZBZ TAF 2020/07/06 06:00 UTC NOAA

TAF MZBZ 060300Z 0606/0706 11009KT 9999 SCT023

Example: see airport list